sensor_id;sensor_type;location;lat;lon;timestamp;P1;durP1;ratioP1;P2;durP2;ratioP2
3083;SDS011;1552;51.952;7.618;2022-11-15T00:01:44;13.60;;;10.00;;
3083;SDS011;1552;51.952;7.618;2022-11-15T00:04:11;16.00;;;9.80;;
3083;SDS011;1552;51.952;7.618;2022-11-15T00:06:37;15.07;;;10.23;;
3083;SDS011;1552;51.952;7.618;2022-11-15T00:09:03;14.17;;;10.40;;
3083;SDS011;1552;51.952;7.618;2022-11-15T00:11:29;17.47;;;10.03;;
3083;SDS011;1552;51.952;7.618;2022-11-15T00:13:57;15.63;;;10.07;;
3083;SDS011;1552;51.952;7.618;2022-11-15T00:16:27;16.67;;;10.60;;
3083;SDS011;1552;51.952;7.618;2022-11-15T00:18:53;17.00;;;10.70;;
3083;SDS011;1552;51.952;7.618;2022-11-15T00:21:20;16.33;;;10.97;;
3083;SDS011;1552;51.952;7.618;2022-11-15T00:23:46;14.23;;;10.13;;
3083;SDS011;1552;51.952;7.618;2022-11-15T00:26:13;14.97;;;10.33;;
3083;SDS011;1552;51.952;7.618;2022-11-15T00:28:40;15.93;;;10.47;;
3083;SDS011;1552;51.952;7.618;2022-11-15T00:31:09;16.37;;;10.80;;
3083;SDS011;1552;51.952;7.618;2022-11-15T00:33:37;15.63;;;10.37;;
3083;SDS011;1552;51.952;7.618;2022-11-15T00:36:04;16.63;;;10.57;;
3083;SDS011;1552;51.952;7.618;2022-11-15T00:38:31;15.80;;;10.63;;
3083;SDS011;1552;51.952;7.618;2022-11-15T00:40:58;16.90;;;10.50;;
3083;SDS011;1552;51.952;7.618;2022-11-15T00:43:24;14.60;;;10.33;;
3083;SDS011;1552;51.952;7.618;2022-11-15T00:45:51;16.47;;;10.30;;
3083;SDS011;1552;51.952;7.618;2022-11-15T00:48:18;18.20;;;10.07;;
3083;SDS011;1552;51.952;7.618;2022-11-15T00:50:45;14.50;;;10.57;;
3083;SDS011;1552;51.952;7.618;2022-11-15T00:53:11;15.13;;;10.33;;
3083;SDS011;1552;51.952;7.618;2022-11-15T00:55:38;14.33;;;10.67;;
3083;SDS011;1552;51.952;7.618;2022-11-15T00:58:04;13.37;;;9.80;;
3083;SDS011;1552;51.952;7.618;2022-11-15T01:00:30;13.77;;;9.60;;
3083;SDS011;1552;51.952;7.618;2022-11-15T01:02:56;13.47;;;9.67;;
3083;SDS011;1552;51.952;7.618;2022-11-15T01:05:24;14.00;;;10.00;;
3083;SDS011;1552;51.952;7.618;2022-11-15T01:07:51;14.17;;;9.83;;
3083;SDS011;1552;51.952;7.618;2022-11-15T01:10:17;12.67;;;9.27;;
3083;SDS011;1552;51.952;7.618;2022-11-15T01:12:44;13.90;;;9.83;;
3083;SDS011;1552;51.952;7.618;2022-11-15T01:15:10;13.70;;;10.03;;
3083;SDS011;1552;51.952;7.618;2022-11-15T01:17:36;14.70;;;10.10;;
3083;SDS011;1552;51.952;7.618;2022-11-15T01:20:03;13.57;;;9.47;;
3083;SDS011;1552;51.952;7.618;2022-11-15T01:22:32;15.73;;;9.67;;
3083;SDS011;1552;51.952;7.618;2022-11-15T01:24:58;12.00;;;9.40;;
3083;SDS011;1552;51.952;7.618;2022-11-15T01:27:24;15.07;;;9.87;;
3083;SDS011;1552;51.952;7.618;2022-11-15T01:29:51;13.13;;;9.87;;
3083;SDS011;1552;51.952;7.618;2022-11-15T01:32:17;14.43;;;10.50;;
3083;SDS011;1552;51.952;7.618;2022-11-15T01:34:43;15.17;;;9.57;;
3083;SDS011;1552;51.952;7.618;2022-11-15T01:37:10;13.40;;;9.50;;
3083;SDS011;1552;51.952;7.618;2022-11-15T01:39:37;13.77;;;9.23;;
3083;SDS011;1552;51.952;7.618;2022-11-15T01:42:04;13.07;;;8.80;;
3083;SDS011;1552;51.952;7.618;2022-11-15T01:44:36;14.57;;;9.73;;
3083;SDS011;1552;51.952;7.618;2022-11-15T01:47:04;13.00;;;9.10;;
3083;SDS011;1552;51.952;7.618;2022-11-15T01:49:32;12.10;;;8.77;;
3083;SDS011;1552;51.952;7.618;2022-11-15T01:52:00;13.47;;;8.27;;
3083;SDS011;1552;51.952;7.618;2022-11-15T01:54:27;15.93;;;9.53;;
3083;SDS011;1552;51.952;7.618;2022-11-15T01:56:55;14.80;;;9.30;;
3083;SDS011;1552;51.952;7.618;2022-11-15T01:59:23;18.30;;;9.30;;
3083;SDS011;1552;51.952;7.618;2022-11-15T02:01:49;11.40;;;8.90;;
3083;SDS011;1552;51.952;7.618;2022-11-15T02:04:17;13.77;;;8.57;;
3083;SDS011;1552;51.952;7.618;2022-11-15T02:06:45;13.73;;;9.27;;
3083;SDS011;1552;51.952;7.618;2022-11-15T02:09:12;13.60;;;8.97;;
3083;SDS011;1552;51.952;7.618;2022-11-15T02:11:39;11.87;;;8.57;;
3083;SDS011;1552;51.952;7.618;2022-11-15T02:14:07;12.37;;;9.17;;
3083;SDS011;1552;51.952;7.618;2022-11-15T02:16:35;15.03;;;9.43;;
3083;SDS011;1552;51.952;7.618;2022-11-15T02:19:08;14.67;;;8.37;;
3083;SDS011;1552;51.952;7.618;2022-11-15T02:21:39;13.90;;;9.23;;
3083;SDS011;1552;51.952;7.618;2022-11-15T02:27:08;13.23;;;8.47;;
3083;SDS011;1552;51.952;7.618;2022-11-15T02:29:45;14.03;;;9.33;;
3083;SDS011;1552;51.952;7.618;2022-11-15T02:32:20;13.03;;;8.90;;
3083;SDS011;1552;51.952;7.618;2022-11-15T02:34:50;12.80;;;9.33;;
3083;SDS011;1552;51.952;7.618;2022-11-15T02:37:21;16.77;;;10.20;;
3083;SDS011;1552;51.952;7.618;2022-11-15T02:39:51;12.47;;;8.50;;
3083;SDS011;1552;51.952;7.618;2022-11-15T02:42:21;11.90;;;9.10;;
3083;SDS011;1552;51.952;7.618;2022-11-15T02:45:07;12.80;;;8.50;;
3083;SDS011;1552;51.952;7.618;2022-11-15T02:47:37;14.23;;;8.33;;
3083;SDS011;1552;51.952;7.618;2022-11-15T02:50:08;13.57;;;8.90;;
3083;SDS011;1552;51.952;7.618;2022-11-15T02:52:35;16.93;;;9.83;;
3083;SDS011;1552;51.952;7.618;2022-11-15T02:55:01;10.90;;;8.00;;
3083;SDS011;1552;51.952;7.618;2022-11-15T02:57:30;13.37;;;8.93;;
3083;SDS011;1552;51.952;7.618;2022-11-15T03:00:01;14.57;;;9.23;;
3083;SDS011;1552;51.952;7.618;2022-11-15T03:02:38;14.03;;;9.33;;
3083;SDS011;1552;51.952;7.618;2022-11-15T03:05:09;13.90;;;9.37;;
3083;SDS011;1552;51.952;7.618;2022-11-15T03:07:42;13.80;;;8.90;;
3083;SDS011;1552;51.952;7.618;2022-11-15T03:10:10;13.10;;;9.50;;
3083;SDS011;1552;51.952;7.618;2022-11-15T03:12:44;11.90;;;9.17;;
3083;SDS011;1552;51.952;7.618;2022-11-15T03:15:12;14.10;;;9.73;;
3083;SDS011;1552;51.952;7.618;2022-11-15T03:17:42;13.93;;;8.90;;
3083;SDS011;1552;51.952;7.618;2022-11-15T03:20:10;11.83;;;8.70;;
3083;SDS011;1552;51.952;7.618;2022-11-15T03:22:39;14.60;;;9.03;;
3083;SDS011;1552;51.952;7.618;2022-11-15T03:25:06;13.20;;;8.57;;
3083;SDS011;1552;51.952;7.618;2022-11-15T03:27:35;13.40;;;8.57;;
3083;SDS011;1552;51.952;7.618;2022-11-15T03:30:04;15.97;;;9.57;;
3083;SDS011;1552;51.952;7.618;2022-11-15T03:32:31;15.30;;;8.97;;
3083;SDS011;1552;51.952;7.618;2022-11-15T03:35:03;14.40;;;8.77;;
3083;SDS011;1552;51.952;7.618;2022-11-15T03:37:32;12.83;;;8.57;;
3083;SDS011;1552;51.952;7.618;2022-11-15T03:40:00;12.03;;;8.83;;
3083;SDS011;1552;51.952;7.618;2022-11-15T03:42:28;11.60;;;8.00;;
3083;SDS011;1552;51.952;7.618;2022-11-15T03:44:57;14.30;;;8.77;;
3083;SDS011;1552;51.952;7.618;2022-11-15T03:47:26;13.70;;;8.57;;
3083;SDS011;1552;51.952;7.618;2022-11-15T03:49:55;15.90;;;8.50;;
3083;SDS011;1552;51.952;7.618;2022-11-15T03:52:24;14.13;;;8.90;;
3083;SDS011;1552;51.952;7.618;2022-11-15T03:54:52;13.47;;;8.87;;
3083;SDS011;1552;51.952;7.618;2022-11-15T03:57:18;11.43;;;8.20;;
3083;SDS011;1552;51.952;7.618;2022-11-15T03:59:45;10.50;;;8.30;;
3083;SDS011;1552;51.952;7.618;2022-11-15T04:02:11;13.37;;;9.13;;
3083;SDS011;1552;51.952;7.618;2022-11-15T04:04:38;14.93;;;9.00;;
3083;SDS011;1552;51.952;7.618;2022-11-15T04:07:04;12.70;;;8.53;;
3083;SDS011;1552;51.952;7.618;2022-11-15T04:09:32;12.10;;;8.57;;
3083;SDS011;1552;51.952;7.618;2022-11-15T04:11:58;13.63;;;8.57;;
3083;SDS011;1552;51.952;7.618;2022-11-15T04:14:25;14.47;;;8.53;;
3083;SDS011;1552;51.952;7.618;2022-11-15T04:16:51;15.50;;;9.13;;
3083;SDS011;1552;51.952;7.618;2022-11-15T04:19:17;13.03;;;8.83;;
3083;SDS011;1552;51.952;7.618;2022-11-15T04:22:01;11.33;;;8.27;;
3083;SDS011;1552;51.952;7.618;2022-11-15T04:24:46;13.50;;;8.60;;
3083;SDS011;1552;51.952;7.618;2022-11-15T04:27:13;15.47;;;8.80;;
3083;SDS011;1552;51.952;7.618;2022-11-15T04:29:39;16.93;;;10.60;;
3083;SDS011;1552;51.952;7.618;2022-11-15T04:32:06;15.93;;;10.60;;
3083;SDS011;1552;51.952;7.618;2022-11-15T04:34:32;17.00;;;9.50;;
3083;SDS011;1552;51.952;7.618;2022-11-15T04:36:59;16.87;;;9.33;;
3083;SDS011;1552;51.952;7.618;2022-11-15T04:39:37;16.63;;;10.10;;
3083;SDS011;1552;51.952;7.618;2022-11-15T04:42:05;17.23;;;10.13;;
3083;SDS011;1552;51.952;7.618;2022-11-15T04:44:31;14.73;;;9.10;;
3083;SDS011;1552;51.952;7.618;2022-11-15T04:46:57;11.73;;;8.03;;
3083;SDS011;1552;51.952;7.618;2022-11-15T04:49:24;16.23;;;9.57;;
3083;SDS011;1552;51.952;7.618;2022-11-15T04:51:50;11.27;;;7.70;;
3083;SDS011;1552;51.952;7.618;2022-11-15T04:54:16;13.00;;;8.13;;
3083;SDS011;1552;51.952;7.618;2022-11-15T04:56:43;15.03;;;9.43;;
3083;SDS011;1552;51.952;7.618;2022-11-15T04:59:10;11.67;;;8.77;;
3083;SDS011;1552;51.952;7.618;2022-11-15T05:01:37;9.90;;;7.20;;
3083;SDS011;1552;51.952;7.618;2022-11-15T05:04:03;13.30;;;7.73;;
3083;SDS011;1552;51.952;7.618;2022-11-15T05:06:45;12.80;;;8.60;;
3083;SDS011;1552;51.952;7.618;2022-11-15T05:09:12;12.40;;;8.30;;
3083;SDS011;1552;51.952;7.618;2022-11-15T05:11:39;13.90;;;9.20;;
3083;SDS011;1552;51.952;7.618;2022-11-15T05:14:05;12.67;;;8.37;;
3083;SDS011;1552;51.952;7.618;2022-11-15T05:16:33;16.23;;;9.00;;
3083;SDS011;1552;51.952;7.618;2022-11-15T05:18:59;9.93;;;7.90;;
3083;SDS011;1552;51.952;7.618;2022-11-15T05:21:25;13.07;;;7.83;;
3083;SDS011;1552;51.952;7.618;2022-11-15T05:23:52;13.53;;;8.40;;
3083;SDS011;1552;51.952;7.618;2022-11-15T05:26:18;15.27;;;8.20;;
3083;SDS011;1552;51.952;7.618;2022-11-15T05:28:44;8.90;;;7.13;;
3083;SDS011;1552;51.952;7.618;2022-11-15T05:31:12;11.97;;;8.07;;
3083;SDS011;1552;51.952;7.618;2022-11-15T05:33:40;12.37;;;7.67;;
3083;SDS011;1552;51.952;7.618;2022-11-15T05:36:09;11.80;;;7.77;;
3083;SDS011;1552;51.952;7.618;2022-11-15T05:38:36;9.90;;;7.00;;
3083;SDS011;1552;51.952;7.618;2022-11-15T05:41:03;11.67;;;7.30;;
3083;SDS011;1552;51.952;7.618;2022-11-15T05:43:30;10.87;;;7.90;;
3083;SDS011;1552;51.952;7.618;2022-11-15T05:45:58;14.67;;;7.93;;
3083;SDS011;1552;51.952;7.618;2022-11-15T05:48:25;9.57;;;6.53;;
3083;SDS011;1552;51.952;7.618;2022-11-15T05:50:53;8.27;;;6.80;;
3083;SDS011;1552;51.952;7.618;2022-11-15T05:53:19;11.47;;;7.00;;
3083;SDS011;1552;51.952;7.618;2022-11-15T05:55:47;12.30;;;8.10;;
3083;SDS011;1552;51.952;7.618;2022-11-15T05:58:13;12.00;;;7.70;;
3083;SDS011;1552;51.952;7.618;2022-11-15T06:00:40;10.87;;;7.40;;
3083;SDS011;1552;51.952;7.618;2022-11-15T06:03:08;10.83;;;7.40;;
3083;SDS011;1552;51.952;7.618;2022-11-15T06:05:34;8.77;;;7.20;;
3083;SDS011;1552;51.952;7.618;2022-11-15T06:08:02;10.57;;;7.43;;
3083;SDS011;1552;51.952;7.618;2022-11-15T06:10:28;12.53;;;8.20;;
3083;SDS011;1552;51.952;7.618;2022-11-15T06:12:57;10.90;;;7.83;;
3083;SDS011;1552;51.952;7.618;2022-11-15T06:15:24;15.03;;;7.43;;
3083;SDS011;1552;51.952;7.618;2022-11-15T06:17:50;10.93;;;7.40;;
3083;SDS011;1552;51.952;7.618;2022-11-15T06:20:17;13.13;;;8.80;;
3083;SDS011;1552;51.952;7.618;2022-11-15T06:22:44;14.80;;;8.47;;
3083;SDS011;1552;51.952;7.618;2022-11-15T06:25:12;12.23;;;8.30;;
3083;SDS011;1552;51.952;7.618;2022-11-15T06:27:38;13.70;;;7.87;;
3083;SDS011;1552;51.952;7.618;2022-11-15T06:30:05;15.17;;;8.70;;
3083;SDS011;1552;51.952;7.618;2022-11-15T06:32:31;13.23;;;8.67;;
3083;SDS011;1552;51.952;7.618;2022-11-15T06:34:58;13.20;;;8.03;;
3083;SDS011;1552;51.952;7.618;2022-11-15T06:37:24;13.60;;;8.90;;
3083;SDS011;1552;51.952;7.618;2022-11-15T06:39:51;13.17;;;7.80;;
3083;SDS011;1552;51.952;7.618;2022-11-15T06:42:19;13.10;;;8.53;;
3083;SDS011;1552;51.952;7.618;2022-11-15T06:44:46;14.30;;;8.03;;
3083;SDS011;1552;51.952;7.618;2022-11-15T06:47:12;11.90;;;7.97;;
3083;SDS011;1552;51.952;7.618;2022-11-15T06:49:38;12.73;;;7.87;;
3083;SDS011;1552;51.952;7.618;2022-11-15T06:52:04;13.53;;;8.50;;
3083;SDS011;1552;51.952;7.618;2022-11-15T06:54:31;13.33;;;9.10;;
3083;SDS011;1552;51.952;7.618;2022-11-15T06:56:57;11.43;;;8.20;;
3083;SDS011;1552;51.952;7.618;2022-11-15T06:59:25;12.47;;;7.07;;
3083;SDS011;1552;51.952;7.618;2022-11-15T07:01:51;11.13;;;8.03;;
3083;SDS011;1552;51.952;7.618;2022-11-15T07:04:17;10.00;;;7.77;;
3083;SDS011;1552;51.952;7.618;2022-11-15T07:06:45;12.40;;;7.70;;
3083;SDS011;1552;51.952;7.618;2022-11-15T07:09:12;12.27;;;7.73;;
3083;SDS011;1552;51.952;7.618;2022-11-15T07:11:38;10.23;;;6.97;;
3083;SDS011;1552;51.952;7.618;2022-11-15T07:14:04;10.33;;;7.43;;
3083;SDS011;1552;51.952;7.618;2022-11-15T07:16:32;10.10;;;6.70;;
3083;SDS011;1552;51.952;7.618;2022-11-15T07:18:58;9.53;;;7.07;;
3083;SDS011;1552;51.952;7.618;2022-11-15T07:21:24;9.37;;;7.40;;
3083;SDS011;1552;51.952;7.618;2022-11-15T07:23:51;9.67;;;7.87;;
3083;SDS011;1552;51.952;7.618;2022-11-15T07:26:17;11.47;;;7.40;;
3083;SDS011;1552;51.952;7.618;2022-11-15T07:28:43;9.77;;;6.70;;
3083;SDS011;1552;51.952;7.618;2022-11-15T07:31:10;10.20;;;7.47;;
3083;SDS011;1552;51.952;7.618;2022-11-15T07:33:37;10.27;;;6.57;;
3083;SDS011;1552;51.952;7.618;2022-11-15T07:36:05;10.20;;;7.07;;
3083;SDS011;1552;51.952;7.618;2022-11-15T07:38:31;9.43;;;6.80;;
3083;SDS011;1552;51.952;7.618;2022-11-15T07:40:58;7.10;;;6.40;;
3083;SDS011;1552;51.952;7.618;2022-11-15T07:43:25;7.73;;;6.20;;
3083;SDS011;1552;51.952;7.618;2022-11-15T07:45:53;7.93;;;6.20;;
3083;SDS011;1552;51.952;7.618;2022-11-15T07:48:19;7.90;;;6.30;;
3083;SDS011;1552;51.952;7.618;2022-11-15T07:50:47;8.93;;;6.30;;
3083;SDS011;1552;51.952;7.618;2022-11-15T07:53:13;7.90;;;6.10;;
3083;SDS011;1552;51.952;7.618;2022-11-15T07:55:40;10.70;;;6.53;;
3083;SDS011;1552;51.952;7.618;2022-11-15T07:58:07;8.50;;;6.37;;
3083;SDS011;1552;51.952;7.618;2022-11-15T08:00:34;11.33;;;7.47;;
3083;SDS011;1552;51.952;7.618;2022-11-15T08:03:02;17.87;;;7.30;;
3083;SDS011;1552;51.952;7.618;2022-11-15T08:05:28;7.80;;;6.67;;
3083;SDS011;1552;51.952;7.618;2022-11-15T08:07:56;11.53;;;6.73;;
3083;SDS011;1552;51.952;7.618;2022-11-15T08:10:22;9.03;;;6.80;;
3083;SDS011;1552;51.952;7.618;2022-11-15T08:12:55;8.27;;;5.97;;
3083;SDS011;1552;51.952;7.618;2022-11-15T08:15:22;7.73;;;6.03;;
3083;SDS011;1552;51.952;7.618;2022-11-15T08:17:52;8.23;;;5.67;;
3083;SDS011;1552;51.952;7.618;2022-11-15T08:20:19;8.20;;;5.70;;
3083;SDS011;1552;51.952;7.618;2022-11-15T08:22:45;9.77;;;5.23;;
3083;SDS011;1552;51.952;7.618;2022-11-15T08:25:13;9.43;;;5.33;;
3083;SDS011;1552;51.952;7.618;2022-11-15T08:27:39;8.27;;;5.53;;
3083;SDS011;1552;51.952;7.618;2022-11-15T08:30:06;7.13;;;4.77;;
3083;SDS011;1552;51.952;7.618;2022-11-15T08:32:32;8.00;;;5.20;;
3083;SDS011;1552;51.952;7.618;2022-11-15T08:34:59;6.43;;;4.33;;
3083;SDS011;1552;51.952;7.618;2022-11-15T08:37:25;6.67;;;4.07;;
3083;SDS011;1552;51.952;7.618;2022-11-15T08:39:52;7.57;;;4.40;;
3083;SDS011;1552;51.952;7.618;2022-11-15T08:42:19;4.40;;;3.60;;
3083;SDS011;1552;51.952;7.618;2022-11-15T08:44:46;8.00;;;4.13;;
3083;SDS011;1552;51.952;7.618;2022-11-15T08:47:12;4.77;;;3.80;;
3083;SDS011;1552;51.952;7.618;2022-11-15T08:49:38;7.33;;;3.83;;
3083;SDS011;1552;51.952;7.618;2022-11-15T08:52:05;8.50;;;3.40;;
3083;SDS011;1552;51.952;7.618;2022-11-15T08:54:31;5.70;;;3.60;;
3083;SDS011;1552;51.952;7.618;2022-11-15T08:56:57;5.57;;;3.13;;
3083;SDS011;1552;51.952;7.618;2022-11-15T08:59:25;3.57;;;3.00;;
3083;SDS011;1552;51.952;7.618;2022-11-15T09:01:51;4.80;;;3.33;;
3083;SDS011;1552;51.952;7.618;2022-11-15T09:04:18;5.23;;;3.50;;
3083;SDS011;1552;51.952;7.618;2022-11-15T09:06:44;4.20;;;3.27;;
3083;SDS011;1552;51.952;7.618;2022-11-15T09:09:10;3.40;;;2.70;;
3083;SDS011;1552;51.952;7.618;2022-11-15T09:11:37;4.17;;;2.47;;
3083;SDS011;1552;51.952;7.618;2022-11-15T09:14:03;4.30;;;2.60;;
3083;SDS011;1552;51.952;7.618;2022-11-15T09:16:31;3.27;;;2.63;;
3083;SDS011;1552;51.952;7.618;2022-11-15T09:18:58;2.90;;;2.30;;
3083;SDS011;1552;51.952;7.618;2022-11-15T09:21:28;3.87;;;2.60;;
3083;SDS011;1552;51.952;7.618;2022-11-15T09:23:54;3.17;;;2.40;;
3083;SDS011;1552;51.952;7.618;2022-11-15T09:26:22;4.00;;;2.03;;
3083;SDS011;1552;51.952;7.618;2022-11-15T09:28:48;4.60;;;2.27;;
3083;SDS011;1552;51.952;7.618;2022-11-15T09:31:15;2.27;;;2.07;;
3083;SDS011;1552;51.952;7.618;2022-11-15T09:33:44;3.27;;;2.30;;
3083;SDS011;1552;51.952;7.618;2022-11-15T09:36:11;5.53;;;2.33;;
3083;SDS011;1552;51.952;7.618;2022-11-15T09:38:38;2.47;;;2.10;;
3083;SDS011;1552;51.952;7.618;2022-11-15T09:43:50;5.10;;;1.97;;
3083;SDS011;1552;51.952;7.618;2022-11-15T09:46:21;3.50;;;2.10;;
3083;SDS011;1552;51.952;7.618;2022-11-15T09:48:51;2.60;;;1.80;;
3083;SDS011;1552;51.952;7.618;2022-11-15T09:51:22;2.93;;;1.90;;
3083;SDS011;1552;51.952;7.618;2022-11-15T09:53:50;4.30;;;2.03;;
3083;SDS011;1552;51.952;7.618;2022-11-15T09:56:18;2.93;;;1.90;;
3083;SDS011;1552;51.952;7.618;2022-11-15T09:58:46;2.47;;;2.10;;
3083;SDS011;1552;51.952;7.618;2022-11-15T10:01:19;5.53;;;2.13;;
3083;SDS011;1552;51.952;7.618;2022-11-15T10:03:48;2.83;;;2.00;;
3083;SDS011;1552;51.952;7.618;2022-11-15T10:06:19;3.57;;;1.77;;
3083;SDS011;1552;51.952;7.618;2022-11-15T10:08:50;3.83;;;2.00;;
3083;SDS011;1552;51.952;7.618;2022-11-15T10:11:18;3.03;;;1.70;;
3083;SDS011;1552;51.952;7.618;2022-11-15T10:13:46;3.80;;;2.00;;
3083;SDS011;1552;51.952;7.618;2022-11-15T10:16:18;4.57;;;1.70;;
3083;SDS011;1552;51.952;7.618;2022-11-15T10:18:52;4.27;;;2.10;;
3083;SDS011;1552;51.952;7.618;2022-11-15T10:21:24;2.47;;;1.73;;
3083;SDS011;1552;51.952;7.618;2022-11-15T10:23:51;4.33;;;2.03;;
3083;SDS011;1552;51.952;7.618;2022-11-15T10:26:18;3.80;;;1.77;;
3083;SDS011;1552;51.952;7.618;2022-11-15T10:28:45;2.93;;;1.57;;
3083;SDS011;1552;51.952;7.618;2022-11-15T10:31:21;3.10;;;2.17;;
3083;SDS011;1552;51.952;7.618;2022-11-15T10:33:47;1.97;;;1.77;;
3083;SDS011;1552;51.952;7.618;2022-11-15T10:36:15;2.03;;;1.60;;
3083;SDS011;1552;51.952;7.618;2022-11-15T10:38:53;2.70;;;1.30;;
3083;SDS011;1552;51.952;7.618;2022-11-15T10:41:20;1.43;;;1.23;;
3083;SDS011;1552;51.952;7.618;2022-11-15T10:44:00;3.33;;;1.50;;
3083;SDS011;1552;51.952;7.618;2022-11-15T10:46:27;2.03;;;1.37;;
3083;SDS011;1552;51.952;7.618;2022-11-15T10:48:55;3.33;;;1.30;;
3083;SDS011;1552;51.952;7.618;2022-11-15T10:51:37;1.50;;;1.40;;
3083;SDS011;1552;51.952;7.618;2022-11-15T10:54:07;3.13;;;1.50;;
3083;SDS011;1552;51.952;7.618;2022-11-15T10:56:36;3.83;;;1.60;;
3083;SDS011;1552;51.952;7.618;2022-11-15T10:59:03;1.53;;;1.23;;
3083;SDS011;1552;51.952;7.618;2022-11-15T11:01:29;2.73;;;1.57;;
3083;SDS011;1552;51.952;7.618;2022-11-15T11:04:00;2.77;;;1.20;;
3083;SDS011;1552;51.952;7.618;2022-11-15T11:06:27;2.77;;;1.40;;
3083;SDS011;1552;51.952;7.618;2022-11-15T11:08:54;4.37;;;1.83;;
3083;SDS011;1552;51.952;7.618;2022-11-15T11:11:23;7.23;;;1.60;;
3083;SDS011;1552;51.952;7.618;2022-11-15T11:13:49;1.47;;;1.27;;
3083;SDS011;1552;51.952;7.618;2022-11-15T11:16:18;1.40;;;1.00;;
3083;SDS011;1552;51.952;7.618;2022-11-15T11:18:48;5.47;;;1.37;;
3083;SDS011;1552;51.952;7.618;2022-11-15T11:21:17;3.37;;;1.40;;
3083;SDS011;1552;51.952;7.618;2022-11-15T11:23:45;2.17;;;1.40;;
3083;SDS011;1552;51.952;7.618;2022-11-15T11:26:17;3.27;;;1.50;;
3083;SDS011;1552;51.952;7.618;2022-11-15T11:28:48;2.00;;;1.17;;
3083;SDS011;1552;51.952;7.618;2022-11-15T11:31:20;2.13;;;0.90;;
3083;SDS011;1552;51.952;7.618;2022-11-15T11:33:51;2.07;;;1.10;;
3083;SDS011;1552;51.952;7.618;2022-11-15T11:36:21;1.77;;;1.00;;
3083;SDS011;1552;51.952;7.618;2022-11-15T11:38:51;3.37;;;1.10;;
3083;SDS011;1552;51.952;7.618;2022-11-15T11:41:23;1.93;;;0.93;;
3083;SDS011;1552;51.952;7.618;2022-11-15T11:43:57;4.67;;;1.20;;
3083;SDS011;1552;51.952;7.618;2022-11-15T11:46:29;2.27;;;1.10;;
3083;SDS011;1552;51.952;7.618;2022-11-15T11:48:59;2.70;;;1.10;;
3083;SDS011;1552;51.952;7.618;2022-11-15T11:51:27;3.50;;;1.40;;
3083;SDS011;1552;51.952;7.618;2022-11-15T11:53:56;2.57;;;1.20;;
3083;SDS011;1552;51.952;7.618;2022-11-15T11:56:25;1.60;;;0.90;;
3083;SDS011;1552;51.952;7.618;2022-11-15T11:58:53;0.80;;;0.80;;
3083;SDS011;1552;51.952;7.618;2022-11-15T12:01:22;1.87;;;1.10;;
3083;SDS011;1552;51.952;7.618;2022-11-15T12:03:51;1.30;;;1.17;;
3083;SDS011;1552;51.952;7.618;2022-11-15T12:06:22;2.03;;;1.37;;
3083;SDS011;1552;51.952;7.618;2022-11-15T12:08:51;1.50;;;1.10;;
3083;SDS011;1552;51.952;7.618;2022-11-15T12:11:20;2.60;;;0.90;;
3083;SDS011;1552;51.952;7.618;2022-11-15T12:13:48;1.43;;;1.00;;
3083;SDS011;1552;51.952;7.618;2022-11-15T12:16:16;1.67;;;0.90;;
3083;SDS011;1552;51.952;7.618;2022-11-15T12:18:46;2.03;;;1.30;;
3083;SDS011;1552;51.952;7.618;2022-11-15T12:21:15;2.30;;;0.80;;
3083;SDS011;1552;51.952;7.618;2022-11-15T12:23:43;1.07;;;0.90;;
3083;SDS011;1552;51.952;7.618;2022-11-15T12:26:11;3.53;;;1.10;;
3083;SDS011;1552;51.952;7.618;2022-11-15T12:28:41;1.77;;;1.20;;
3083;SDS011;1552;51.952;7.618;2022-11-15T12:31:11;2.27;;;1.20;;
3083;SDS011;1552;51.952;7.618;2022-11-15T12:33:40;2.17;;;1.83;;
3083;SDS011;1552;51.952;7.618;2022-11-15T12:36:10;1.30;;;1.10;;
3083;SDS011;1552;51.952;7.618;2022-11-15T12:38:55;3.47;;;1.53;;
3083;SDS011;1552;51.952;7.618;2022-11-15T12:41:23;1.80;;;1.20;;
3083;SDS011;1552;51.952;7.618;2022-11-15T12:43:49;2.50;;;1.20;;
3083;SDS011;1552;51.952;7.618;2022-11-15T12:46:21;1.50;;;1.00;;
3083;SDS011;1552;51.952;7.618;2022-11-15T12:48:49;3.43;;;1.20;;
3083;SDS011;1552;51.952;7.618;2022-11-15T12:51:18;0.87;;;0.87;;
3083;SDS011;1552;51.952;7.618;2022-11-15T12:53:45;5.47;;;1.20;;
3083;SDS011;1552;51.952;7.618;2022-11-15T12:56:19;2.37;;;1.23;;
3083;SDS011;1552;51.952;7.618;2022-11-15T12:58:46;1.70;;;1.10;;
3083;SDS011;1552;51.952;7.618;2022-11-15T13:06:40;1.57;;;1.10;;
3083;SDS011;1552;51.952;7.618;2022-11-15T13:11:52;1.43;;;1.00;;
3083;SDS011;1552;51.952;7.618;2022-11-15T13:17:10;3.07;;;1.17;;
3083;SDS011;1552;51.952;7.618;2022-11-15T13:19:38;3.77;;;1.20;;
3083;SDS011;1552;51.952;7.618;2022-11-15T13:22:08;1.87;;;1.10;;
3083;SDS011;1552;51.952;7.618;2022-11-15T13:24:52;1.93;;;0.87;;
3083;SDS011;1552;51.952;7.618;2022-11-15T13:27:18;1.30;;;1.00;;
3083;SDS011;1552;51.952;7.618;2022-11-15T13:29:45;1.10;;;0.90;;
3083;SDS011;1552;51.952;7.618;2022-11-15T13:32:11;1.10;;;1.00;;
3083;SDS011;1552;51.952;7.618;2022-11-15T13:34:39;4.67;;;0.97;;
3083;SDS011;1552;51.952;7.618;2022-11-15T13:37:13;1.73;;;1.10;;
3083;SDS011;1552;51.952;7.618;2022-11-15T13:39:53;3.17;;;1.00;;
3083;SDS011;1552;51.952;7.618;2022-11-15T13:42:19;1.00;;;0.90;;
3083;SDS011;1552;51.952;7.618;2022-11-15T13:44:56;2.03;;;0.90;;
3083;SDS011;1552;51.952;7.618;2022-11-15T13:47:24;2.57;;;0.80;;
3083;SDS011;1552;51.952;7.618;2022-11-15T13:49:51;4.50;;;1.50;;
3083;SDS011;1552;51.952;7.618;2022-11-15T13:52:19;1.67;;;1.10;;
3083;SDS011;1552;51.952;7.618;2022-11-15T13:54:47;3.13;;;0.97;;
3083;SDS011;1552;51.952;7.618;2022-11-15T13:57:18;1.60;;;1.03;;
3083;SDS011;1552;51.952;7.618;2022-11-15T13:59:45;0.70;;;0.65;;
3083;SDS011;1552;51.952;7.618;2022-11-15T14:02:12;1.77;;;0.87;;
3083;SDS011;1552;51.952;7.618;2022-11-15T14:04:45;2.60;;;0.80;;
3083;SDS011;1552;51.952;7.618;2022-11-15T14:07:15;1.83;;;0.80;;
3083;SDS011;1552;51.952;7.618;2022-11-15T14:09:43;1.00;;;0.90;;
3083;SDS011;1552;51.952;7.618;2022-11-15T14:12:22;0.97;;;0.80;;
3083;SDS011;1552;51.952;7.618;2022-11-15T14:14:48;1.13;;;0.80;;
3083;SDS011;1552;51.952;7.618;2022-11-15T14:17:19;0.87;;;0.87;;
3083;SDS011;1552;51.952;7.618;2022-11-15T14:19:45;3.70;;;1.00;;
3083;SDS011;1552;51.952;7.618;2022-11-15T14:22:16;1.93;;;0.90;;
3083;SDS011;1552;51.952;7.618;2022-11-15T14:24:45;1.37;;;0.83;;
3083;SDS011;1552;51.952;7.618;2022-11-15T14:27:16;1.97;;;0.93;;
3083;SDS011;1552;51.952;7.618;2022-11-15T14:29:42;2.20;;;1.20;;
3083;SDS011;1552;51.952;7.618;2022-11-15T14:32:12;3.67;;;1.57;;
3083;SDS011;1552;51.952;7.618;2022-11-15T14:34:38;2.80;;;2.07;;
3083;SDS011;1552;51.952;7.618;2022-11-15T14:37:04;2.60;;;1.33;;
3083;SDS011;1552;51.952;7.618;2022-11-15T14:39:31;5.93;;;1.27;;
3083;SDS011;1552;51.952;7.618;2022-11-15T14:41:58;4.40;;;1.13;;
3083;SDS011;1552;51.952;7.618;2022-11-15T14:44:25;3.20;;;0.80;;
3083;SDS011;1552;51.952;7.618;2022-11-15T14:46:51;7.43;;;1.60;;
3083;SDS011;1552;51.952;7.618;2022-11-15T14:49:17;2.37;;;1.57;;
3083;SDS011;1552;51.952;7.618;2022-11-15T14:51:44;2.70;;;1.67;;
3083;SDS011;1552;51.952;7.618;2022-11-15T14:54:10;2.63;;;1.73;;
3083;SDS011;1552;51.952;7.618;2022-11-15T14:56:37;3.93;;;1.70;;
3083;SDS011;1552;51.952;7.618;2022-11-15T14:59:05;3.63;;;1.77;;
3083;SDS011;1552;51.952;7.618;2022-11-15T15:01:33;3.93;;;1.80;;
3083;SDS011;1552;51.952;7.618;2022-11-15T15:03:59;1.20;;;1.00;;
3083;SDS011;1552;51.952;7.618;2022-11-15T15:06:26;3.93;;;1.40;;
3083;SDS011;1552;51.952;7.618;2022-11-15T15:08:52;4.23;;;1.43;;
3083;SDS011;1552;51.952;7.618;2022-11-15T15:11:19;3.53;;;1.20;;
3083;SDS011;1552;51.952;7.618;2022-11-15T15:13:46;2.90;;;1.07;;
3083;SDS011;1552;51.952;7.618;2022-11-15T15:16:14;5.07;;;1.30;;
3083;SDS011;1552;51.952;7.618;2022-11-15T15:18:40;2.73;;;1.10;;
3083;SDS011;1552;51.952;7.618;2022-11-15T15:21:20;4.57;;;1.10;;
3083;SDS011;1552;51.952;7.618;2022-11-15T15:23:47;5.77;;;1.40;;
3083;SDS011;1552;51.952;7.618;2022-11-15T15:26:14;2.53;;;1.20;;
3083;SDS011;1552;51.952;7.618;2022-11-15T15:28:40;4.57;;;1.40;;
3083;SDS011;1552;51.952;7.618;2022-11-15T15:31:07;5.90;;;1.57;;